SKW3976 KTUS-KLAX
Flight info
| Callsign | SKW3976 |
|---|---|
| Flight time | N/A |
| Altitude | 34000 |
| Route | WLDKT4 GBN J104 WLVRN ESTWD HLYWD1 |
| Aircraft | E75L/M-SDE3GILORVW/S |
Departure
| Time | 2026-05-08 01:04 |
|---|---|
| Airport | Tucson International Airport (KTUS) |
Arrival
| Time | N/A |
|---|---|
| Airport | Los Angeles International Airport (KLAX) |
| Time | Latitude | Longitude | Altitude | Speed | Heading |
|---|---|---|---|---|---|
| 2026-05-08 00:48 | 32.12054 | -110.93962 | 2593 ft | 0 kts | 40° |
| 2026-05-08 00:52 | 32.12047 | -110.93970 | 2589 ft | 3 kts | 41° |
| 2026-05-08 00:52 | 32.12032 | -110.93986 | 2585 ft | 2 kts | 41° |
| 2026-05-08 00:53 | 32.12020 | -110.93999 | 2582 ft | 3 kts | 54° |
| 2026-05-08 00:53 | 32.12014 | -110.94020 | 2592 ft | 3 kts | 98° |
| 2026-05-08 00:53 | 32.12022 | -110.94040 | 2585 ft | 3 kts | 130° |
| 2026-05-08 00:53 | 32.12031 | -110.94051 | 2585 ft | 1 kts | 135° |
| 2026-05-08 00:54 | 32.12033 | -110.94053 | 2586 ft | 0 kts | 135° |
| 2026-05-08 00:56 | 32.12027 | -110.94046 | 2586 ft | 4 kts | 135° |
| 2026-05-08 00:56 | 32.11989 | -110.94001 | 2588 ft | 11 kts | 134° |
| 2026-05-08 00:57 | 32.11926 | -110.93944 | 2587 ft | 11 kts | 168° |
| 2026-05-08 00:57 | 32.11853 | -110.93968 | 2592 ft | 12 kts | 166° |
| 2026-05-08 00:57 | 32.11786 | -110.93902 | 2596 ft | 14 kts | 138° |
| 2026-05-08 00:57 | 32.11719 | -110.93823 | 2595 ft | 13 kts | 135° |
| 2026-05-08 00:58 | 32.11657 | -110.93749 | 2602 ft | 12 kts | 135° |
| 2026-05-08 00:58 | 32.11614 | -110.93698 | 2604 ft | 9 kts | 135° |
| 2026-05-08 00:58 | 32.11570 | -110.93648 | 2606 ft | 9 kts | 135° |
| 2026-05-08 00:58 | 32.11523 | -110.93594 | 2608 ft | 14 kts | 135° |
| 2026-05-08 00:59 | 32.11438 | -110.93493 | 2613 ft | 17 kts | 135° |
| 2026-05-08 00:59 | 32.11353 | -110.93394 | 2615 ft | 18 kts | 134° |
| 2026-05-08 00:59 | 32.11267 | -110.93292 | 2618 ft | 17 kts | 135° |
| 2026-05-08 00:59 | 32.11178 | -110.93188 | 2620 ft | 20 kts | 136° |
| 2026-05-08 01:00 | 32.11077 | -110.93069 | 2621 ft | 21 kts | 135° |
| 2026-05-08 01:00 | 32.10977 | -110.92951 | 2624 ft | 20 kts | 134° |
| 2026-05-08 01:00 | 32.10877 | -110.92833 | 2628 ft | 20 kts | 136° |
| 2026-05-08 01:00 | 32.10784 | -110.92724 | 2633 ft | 18 kts | 135° |
| 2026-05-08 01:01 | 32.10696 | -110.92621 | 2636 ft | 18 kts | 135° |
| 2026-05-08 01:01 | 32.10613 | -110.92526 | 2641 ft | 16 kts | 135° |
| 2026-05-08 01:01 | 32.10520 | -110.92414 | 2643 ft | 21 kts | 135° |
| 2026-05-08 01:01 | 32.10415 | -110.92291 | 2645 ft | 21 kts | 135° |
| 2026-05-08 01:02 | 32.10340 | -110.92208 | 2646 ft | 7 kts | 139° |
| 2026-05-08 01:02 | 32.10295 | -110.92188 | 2647 ft | 7 kts | 206° |
| 2026-05-08 01:02 | 32.10277 | -110.92207 | 2651 ft | 0 kts | 231° |
| 2026-05-08 01:02 | 32.10274 | -110.92211 | 2649 ft | 1 kts | 231° |
| 2026-05-08 01:03 | 32.10266 | -110.92223 | 2653 ft | 3 kts | 229° |
| 2026-05-08 01:03 | 32.10228 | -110.92274 | 2647 ft | 16 kts | 238° |
| 2026-05-08 01:03 | 32.10254 | -110.92353 | 2648 ft | 0 kts | 316° |
| 2026-05-08 01:03 | 32.10293 | -110.92398 | 2647 ft | 36 kts | 315° |
| 2026-05-08 01:04 | 32.10677 | -110.92849 | 2634 ft | 118 kts | 315° |
| 2026-05-08 01:04 | 32.11431 | -110.93721 | 2803 ft | 175 kts | 316° |
| 2026-05-08 01:04 | 32.12345 | -110.94805 | 3695 ft | 201 kts | 316° |
| 2026-05-08 01:04 | 32.13377 | -110.96020 | 4698 ft | 207 kts | 317° |
| 2026-05-08 01:05 | 32.14429 | -110.97238 | 5861 ft | 215 kts | 318° |
| 2026-05-08 01:05 | 32.15523 | -110.98477 | 6909 ft | 222 kts | 319° |
| 2026-05-08 01:05 | 32.16664 | -110.99754 | 7969 ft | 230 kts | 319° |
| 2026-05-08 01:05 | 32.17909 | -111.01120 | 8669 ft | 266 kts | 320° |
| 2026-05-08 01:06 | 32.19353 | -111.02656 | 9485 ft | 291 kts | 320° |
| 2026-05-08 01:06 | 32.20918 | -111.04291 | 10431 ft | 311 kts | 320° |
| 2026-05-08 01:06 | 32.22470 | -111.05893 | 12322 ft | 282 kts | 321° |
| 2026-05-08 01:06 | 32.23990 | -111.07443 | 13319 ft | 306 kts | 321° |
| 2026-05-08 01:07 | 32.25669 | -111.09150 | 13705 ft | 340 kts | 317° |
| 2026-05-08 01:07 | 32.27075 | -111.11545 | 14216 ft | 368 kts | 293° |
| 2026-05-08 01:07 | 32.27578 | -111.14538 | 15236 ft | 378 kts | 270° |
| 2026-05-08 01:07 | 32.27567 | -111.15002 | 15403 ft | 378 kts | 266° |
| 2026-05-08 01:08 | 32.26936 | -111.17998 | 16441 ft | 386 kts | 245° |
| 2026-05-08 01:08 | 32.25372 | -111.20690 | 16532 ft | 417 kts | 224° |
| 2026-05-08 01:08 | 32.24374 | -111.21710 | 16165 ft | 436 kts | 216° |